Terminal Aerodrome Forecast
Issued by NWS

Home | Current Version | Previous Version | Text Only | Print | Product List | Glossary On
Versions: 1 2 3 4 5 6 7 8 9 10 11 12 13 14 15 16 17 18 19
000
FTUS43 KBIS 290531
TAFJMS
TAF
KJMS 290531Z 2906/3006 32004KT P6SM FEW025 SCT120
     FM291100 VRB03KT P6SM SCT050
     FM291700 31005KT P6SM -SHRA SCT050 OVC080
     FM292200 32007KT P6SM BKN080=

USA.gov is the U.S. government's official web portal to all federal, state and local government web resources and services.